Flight Training


We provide structured training required to obtain a pilots certificate ranging from a Private Pilot up to ATP flying for the major airlines.

If your desire to fly is for personal pleasure the first step is to find a professional FAA licensed flight instructor to begin your journey.

The one-hour introductory flight with an instructor lasts one hour and features a log book and a six-month subscription to Flight Training magazine. After flying you to the training area, your instructor will let you test the controls. Call us now

 

Aviation Weather

Available data for KLDJ from the past 2 hours
LINDEN, NJ
Metar
KLDJ 210815Z AUTO 00000KT 3SM -DZ OVC005 01/00 A2992 RMK AO2 T00050000

08:15 UTC

Wind: 0° 0kt

Visibility: 3 SM

Sky: OVC 500 ft

Temp: 1 deg C / 33.8 deg F

Dewpoint: 0 deg C / 32 deg F

Pressure: 29.92 inHg


Available data for KEWR from the past hour
NEWARK, NJ
TAF
KEWR 210536Z 2106/2212 02005KT 2SM -RA OVC005 TEMPO 2106/2107 -FZRA OVC005 FM210900 VRB04KT 2SM BR OVC004 FM211100 27006KT 6SM BR BKN004 OVC007 FM211400 26010KT P6SM BKN015 BKN025 FM211600 27012KT P6SM SCT025 SCT250 FM211800 29013G20KT P6SM SCT250 FM220000 30010KT P6SM SCT250 FM220600 32007KT P6SM SCT250

Our planes

Some of our students